sensor_id;sensor_type;location;lat;lon;timestamp;pressure;altitude;pressure_sealevel;temperature
80263;BMP280;69975;43.608;3.886;2023-07-13T12:18:23;104484.296875;;;26.049999
80263;BMP280;69975;43.608;3.886;2023-07-13T12:18:32;104269.687500;;;26.059999
80263;BMP280;69975;43.608;3.886;2023-07-13T12:18:47;105127.734375;;;26.010000
80263;BMP280;69975;43.608;3.886;2023-07-13T12:21:10;93324.687500;;;26.879999
80263;BMP280;69975;43.608;3.886;2023-07-13T12:21:29;91820.625000;;;26.990000
80263;BMP280;69975;43.608;3.886;2023-07-13T12:21:38;91176.328125;;;27.049999
80263;BMP280;69975;43.608;3.886;2023-07-13T14:54:31;60130.937500;;;29.660000
80263;BMP280;69975;43.608;3.886;2023-07-13T14:54:41;59481.875000;;;29.740000
80263;BMP280;69975;43.608;3.886;2023-07-13T14:54:52;59049.062500;;;29.799999
80263;BMP280;69975;43.608;3.886;2023-07-13T14:55:03;58616.171875;;;29.860001
80263;BMP280;69975;43.608;3.886;2023-07-13T14:55:36;57750.234375;;;29.940001
80263;BMP280;69975;43.608;3.886;2023-07-13T14:55:50;57750.156250;;;29.969999
80263;BMP280;69975;43.608;3.886;2023-07-13T14:56:00;57750.156250;;;29.969999
80263;BMP280;69975;43.608;3.886;2023-07-13T14:56:11;57750.234375;;;29.950001
80263;BMP280;69975;43.608;3.886;2023-07-13T14:56:25;57533.593750;;;30.010000
80263;BMP280;69975;43.608;3.886;2023-07-13T14:56:40;57317.031250;;;30.049999
80263;BMP280;69975;43.608;3.886;2023-07-13T14:56:58;57317.031250;;;30.049999
80263;BMP280;69975;43.608;3.886;2023-07-13T14:57:10;57100.390625;;;30.090000
80263;BMP280;69975;43.608;3.886;2023-07-13T14:57:23;56883.671875;;;30.150000
80263;BMP280;69975;43.608;3.886;2023-07-13T14:57:33;56883.750000;;;30.129999
80263;BMP280;69975;43.608;3.886;2023-07-13T14:57:44;57100.312500;;;30.110001
80263;BMP280;69975;43.608;3.886;2023-07-13T14:57:54;56883.750000;;;30.120001
80263;BMP280;69975;43.608;3.886;2023-07-13T14:58:05;56667.109375;;;30.160000
80263;BMP280;69975;43.608;3.886;2023-07-13T14:58:20;56633.203125;;;30.170000
80263;BMP280;69975;43.608;3.886;2023-07-13T14:58:38;56883.750000;;;30.129999
80263;BMP280;69975;43.608;3.886;2023-07-13T14:58:48;56655.234375;;;30.170000
80263;BMP280;69975;43.608;3.886;2023-07-13T14:58:59;56626.406250;;;30.180000
80263;BMP280;69975;43.608;3.886;2023-07-13T14:59:29;57100.390625;;;30.090000
80263;BMP280;69975;43.608;3.886;2023-07-13T14:59:43;56883.828125;;;30.110001
80263;BMP280;69975;43.608;3.886;2023-07-13T14:59:53;56883.671875;;;30.150000
80263;BMP280;69975;43.608;3.886;2023-07-13T15:00:13;56883.671875;;;30.139999
80263;BMP280;69975;43.608;3.886;2023-07-13T15:00:22;57100.390625;;;30.090000
80263;BMP280;69975;43.608;3.886;2023-07-13T15:00:45;56667.109375;;;30.160000
80263;BMP280;69975;43.608;3.886;2023-07-13T15:00:55;56667.187500;;;30.139999
80263;BMP280;69975;43.608;3.886;2023-07-13T15:01:12;56651.796875;;;30.180000
80263;BMP280;69975;43.608;3.886;2023-07-13T15:01:20;56883.671875;;;30.139999
80263;BMP280;69975;43.608;3.886;2023-07-13T15:01:31;56883.750000;;;30.129999
80263;BMP280;69975;43.608;3.886;2023-07-13T15:01:49;56640.000000;;;30.170000
80263;BMP280;69975;43.608;3.886;2023-07-13T15:02:21;56345.546875;;;30.200001
80263;BMP280;69975;43.608;3.886;2023-07-13T15:02:36;55664.843750;;;30.309999
80263;BMP280;69975;43.608;3.886;2023-07-13T15:02:51;55713.984375;;;30.299999
80263;BMP280;69975;43.608;3.886;2023-07-13T15:03:15;56330.312500;;;30.200001
80263;BMP280;69975;43.608;3.886;2023-07-13T15:03:20;56612.968750;;;30.170000
80263;BMP280;69975;43.608;3.886;2023-07-13T15:03:30;56656.953125;;;30.160000
80263;BMP280;69975;43.608;3.886;2023-07-13T15:03:41;56667.109375;;;30.160000
80263;BMP280;69975;43.608;3.886;2023-07-13T15:03:52;56883.750000;;;30.120001
80263;BMP280;69975;43.608;3.886;2023-07-13T15:04:02;56667.187500;;;30.139999
80263;BMP280;69975;43.608;3.886;2023-07-13T15:04:16;56667.109375;;;30.160000
80263;BMP280;69975;43.608;3.886;2023-07-13T15:04:26;56883.750000;;;30.129999
80263;BMP280;69975;43.608;3.886;2023-07-13T15:04:49;57100.390625;;;30.090000
80263;BMP280;69975;43.608;3.886;2023-07-13T15:04:59;57100.390625;;;30.090000
80263;BMP280;69975;43.608;3.886;2023-07-13T15:05:26;57100.468750;;;30.070000
80263;BMP280;69975;43.608;3.886;2023-07-13T15:05:42;57533.593750;;;30.020000
80263;BMP280;69975;43.608;3.886;2023-07-13T15:05:52;57317.031250;;;30.049999
